createdAt,value
2022-11-12T00:00:10.189Z,51.212040
2022-11-12T00:01:10.193Z,51.212029
2022-11-12T00:02:10.230Z,51.211906
2022-11-12T00:03:10.168Z,51.211842
2022-11-12T00:04:10.165Z,51.212139
2022-11-12T00:05:10.166Z,51.212200
2022-11-12T00:06:10.169Z,51.212086
2022-11-12T00:07:10.228Z,51.211987
2022-11-12T00:08:10.161Z,51.211998
2022-11-12T00:09:10.146Z,51.212185
2022-11-12T00:10:10.128Z,51.212032
2022-11-12T00:11:10.148Z,51.212139
2022-11-12T00:12:10.211Z,51.212181
2022-11-12T00:13:10.099Z,51.212109
2022-11-12T00:14:10.108Z,51.212112
2022-11-12T00:15:10.096Z,51.212173
2022-11-12T00:16:10.104Z,51.212017
2022-11-12T00:17:10.091Z,51.211994
2022-11-12T00:18:10.075Z,51.212151
2022-11-12T00:19:10.085Z,51.212132
2022-11-12T00:20:10.124Z,51.212212
2022-11-12T00:21:10.065Z,51.212097
2022-11-12T00:22:10.071Z,51.212132
2022-11-12T00:23:10.062Z,51.212181
2022-11-12T00:24:10.048Z,51.212093
2022-11-12T00:25:10.900Z,51.212196
2022-11-12T00:26:10.035Z,51.212254
2022-11-12T00:27:10.052Z,51.212162
2022-11-12T00:28:10.127Z,51.211971
2022-11-12T00:29:10.020Z,51.212177
2022-11-12T00:30:10.080Z,51.211887
2022-11-12T00:31:09.998Z,51.212181
2022-11-12T00:32:09.992Z,51.212154
2022-11-12T00:33:10.028Z,51.212215
2022-11-12T00:34:09.980Z,51.212200
2022-11-12T00:35:13.676Z,51.212185
2022-11-12T00:36:10.991Z,51.212254
2022-11-12T00:37:09.960Z,51.212151
2022-11-12T00:38:09.965Z,51.212132
2022-11-12T00:39:09.966Z,51.212086
2022-11-12T00:40:09.939Z,51.212070
2022-11-12T00:41:10.940Z,51.211994
2022-11-12T00:42:09.952Z,51.212132
2022-11-12T00:43:09.936Z,51.212223
2022-11-12T00:44:10.024Z,51.212193
2022-11-12T00:45:09.925Z,51.212051
2022-11-12T00:46:09.904Z,51.211994
2022-11-12T00:47:09.900Z,51.212132
2022-11-12T00:48:09.908Z,51.212185
2022-11-12T00:49:09.888Z,51.212116
2022-11-12T00:50:09.912Z,51.212074
2022-11-12T00:51:09.905Z,51.212086
2022-11-12T00:52:09.880Z,51.212162
2022-11-12T00:53:09.864Z,51.212112
2022-11-12T00:54:09.890Z,51.212177
2022-11-12T00:55:09.877Z,51.212063
2022-11-12T00:56:09.845Z,51.212078
2022-11-12T00:57:10.878Z,51.212078
2022-11-12T00:58:09.836Z,51.212029
2022-11-12T00:59:09.833Z,51.212044
2022-11-12T01:00:09.928Z,51.212078
2022-11-12T01:01:09.994Z,51.212135
2022-11-12T01:02:09.821Z,51.212063
2022-11-12T01:03:09.885Z,51.212059
2022-11-12T01:04:09.861Z,51.212162
2022-11-12T01:05:09.809Z,51.211967
2022-11-12T01:06:09.794Z,51.212067
2022-11-12T01:07:09.860Z,51.212124
2022-11-12T01:08:09.798Z,51.212219
2022-11-12T01:09:09.797Z,51.212170
2022-11-12T01:10:09.763Z,51.212132
2022-11-12T01:11:09.750Z,51.212219
2022-11-12T01:12:10.770Z,51.212189
2022-11-12T01:13:09.765Z,51.212120
2022-11-12T01:14:09.766Z,51.212223
2022-11-12T01:15:09.754Z,51.212193
2022-11-12T01:16:09.814Z,51.212257
2022-11-12T01:17:09.722Z,51.212269
2022-11-12T01:18:09.753Z,51.212132
2022-11-12T01:19:09.705Z,51.212128
2022-11-12T01:20:09.711Z,51.212330
2022-11-12T01:21:10.710Z,51.212234
2022-11-12T01:22:09.697Z,51.212269
2022-11-12T01:23:09.757Z,51.212242
2022-11-12T01:24:09.718Z,51.212242
2022-11-12T01:25:09.689Z,51.212116
2022-11-12T01:26:09.667Z,51.212093
2022-11-12T01:27:09.686Z,51.212135
2022-11-12T01:28:09.654Z,51.212193
2022-11-12T01:29:09.647Z,51.212261
2022-11-12T01:30:09.670Z,51.212250
2022-11-12T01:31:09.651Z,51.212261
2022-11-12T01:32:09.719Z,51.212307
2022-11-12T01:33:09.637Z,51.212204
2022-11-12T01:34:09.622Z,51.212208
2022-11-12T01:35:09.637Z,51.212147
2022-11-12T01:36:09.625Z,51.212208
2022-11-12T01:37:09.592Z,51.212200
2022-11-12T01:38:09.597Z,51.212185
2022-11-12T01:39:09.612Z,51.212334
2022-11-12T01:40:09.600Z,51.212231
2022-11-12T01:41:09.588Z,51.212185
2022-11-12T01:42:09.584Z,51.212078
2022-11-12T01:43:09.575Z,51.212128
2022-11-12T01:44:09.564Z,51.212029
2022-11-12T01:45:09.581Z,51.212116
2022-11-12T01:46:09.563Z,51.212105
2022-11-12T01:47:09.545Z,51.212215
2022-11-12T01:48:09.629Z,51.212269
2022-11-12T01:49:09.533Z,51.212227
2022-11-12T01:50:09.533Z,51.212296
2022-11-12T01:51:09.552Z,51.212315
2022-11-12T01:52:09.529Z,51.212326
2022-11-12T01:53:09.495Z,51.212265
2022-11-12T01:54:09.544Z,51.212265
2022-11-12T01:55:09.492Z,51.212242
2022-11-12T01:56:09.493Z,51.212238
2022-11-12T01:57:09.488Z,51.212269
2022-11-12T01:58:09.493Z,51.212246
2022-11-12T01:59:09.497Z,51.212181
2022-11-12T02:00:09.457Z,51.212193
2022-11-12T02:01:09.501Z,51.212166
2022-11-12T02:02:09.485Z,51.212036
2022-11-12T02:03:09.449Z,51.212166
2022-11-12T02:04:09.551Z,51.212200
2022-11-12T02:05:09.432Z,51.212250
2022-11-12T02:06:09.439Z,51.212189
2022-11-12T02:07:09.458Z,51.212212
2022-11-12T02:08:09.417Z,51.212166
2022-11-12T02:09:09.427Z,51.212200
2022-11-12T02:10:09.420Z,51.212151
2022-11-12T02:11:09.411Z,51.212208
2022-11-12T02:12:09.399Z,51.212250
2022-11-12T02:13:09.383Z,51.212273
2022-11-12T02:14:09.404Z,51.212318
2022-11-12T02:15:09.391Z,51.212181
2022-11-12T02:16:09.376Z,51.212177
2022-11-12T02:17:09.359Z,51.212215
2022-11-12T02:18:09.358Z,51.212189
2022-11-12T02:19:09.379Z,51.212059
2022-11-12T02:20:09.446Z,51.212173
2022-11-12T02:21:09.420Z,51.212227
2022-11-12T02:22:09.357Z,51.212173
2022-11-12T02:23:09.315Z,51.212181
2022-11-12T02:24:09.331Z,51.212166
2022-11-12T02:25:09.342Z,51.212166
2022-11-12T02:26:09.304Z,51.212120
2022-11-12T02:27:09.291Z,51.212158
2022-11-12T02:28:09.321Z,51.212162
2022-11-12T02:29:09.270Z,51.212196
2022-11-12T02:30:09.294Z,51.212120
2022-11-12T02:31:09.274Z,51.212025
2022-11-12T02:32:10.270Z,51.211998
2022-11-12T02:33:09.271Z,51.212029
2022-11-12T02:34:09.277Z,51.212032
2022-11-12T02:35:09.250Z,51.212009
2022-11-12T02:36:09.349Z,51.211800
2022-11-12T02:37:09.255Z,51.212017
2022-11-12T02:38:09.226Z,51.211983
2022-11-12T02:39:09.234Z,51.211864
2022-11-12T02:40:09.238Z,51.211918
2022-11-12T02:41:09.238Z,51.211926
2022-11-12T02:42:09.204Z,51.211967
2022-11-12T02:43:09.216Z,51.211803
2022-11-12T02:44:09.190Z,51.211777
2022-11-12T02:45:09.185Z,51.211712
2022-11-12T02:46:09.207Z,51.211811
2022-11-12T02:47:09.194Z,51.211601
2022-11-12T02:48:09.173Z,51.211750
2022-11-12T02:49:09.178Z,51.211983
2022-11-12T02:50:09.157Z,51.211834
2022-11-12T02:51:09.176Z,51.211857
2022-11-12T02:52:09.253Z,51.211979
2022-11-12T02:53:09.176Z,51.211803
2022-11-12T02:54:09.124Z,51.211658
2022-11-12T02:55:10.141Z,51.211933
2022-11-12T02:56:09.123Z,51.211914
2022-11-12T02:57:09.154Z,51.211979
2022-11-12T02:58:09.124Z,51.212051
2022-11-12T02:59:09.105Z,51.212124
2022-11-12T03:00:09.096Z,51.212006
2022-11-12T03:01:09.168Z,51.212086
2022-11-12T03:02:09.107Z,51.211887
2022-11-12T03:03:09.085Z,51.212074
2022-11-12T03:04:09.092Z,51.211987
2022-11-12T03:05:09.072Z,51.211929
2022-11-12T03:06:09.067Z,51.211884
2022-11-12T03:07:09.144Z,51.211960
2022-11-12T03:08:09.166Z,51.212051
2022-11-12T03:09:09.054Z,51.212029
2022-11-12T03:10:09.055Z,51.212036
2022-11-12T03:11:09.029Z,51.212097
2022-11-12T03:12:09.031Z,51.212086
2022-11-12T03:13:09.966Z,51.212051
2022-11-12T03:14:09.021Z,51.212082
2022-11-12T03:15:09.029Z,51.211872
2022-11-12T03:16:08.990Z,51.211906
2022-11-12T03:17:09.007Z,51.211998
2022-11-12T03:18:08.994Z,51.211918
2022-11-12T03:19:08.987Z,51.212059
2022-11-12T03:20:08.974Z,51.212044
2022-11-12T03:21:08.981Z,51.211926
2022-11-12T03:22:08.974Z,51.212067
2022-11-12T03:23:08.999Z,51.211998
2022-11-12T03:24:09.057Z,51.212090
2022-11-12T03:25:08.947Z,51.212059
2022-11-12T03:26:08.961Z,51.212223
2022-11-12T03:27:08.942Z,51.212090
2022-11-12T03:28:08.922Z,51.211826
2022-11-12T03:29:08.986Z,51.212051
2022-11-12T03:30:08.922Z,51.212078
2022-11-12T03:31:08.942Z,51.212109
2022-11-12T03:32:08.913Z,51.212132
2022-11-12T03:33:08.898Z,51.212029
2022-11-12T03:34:08.891Z,51.212070
2022-11-12T03:35:09.878Z,51.212048
2022-11-12T03:36:08.919Z,51.212147
2022-11-12T03:37:08.877Z,51.212021
2022-11-12T03:38:08.879Z,51.212051
2022-11-12T03:39:08.860Z,51.212299
2022-11-12T03:40:08.947Z,51.212040
2022-11-12T03:41:08.862Z,51.211926
2022-11-12T03:42:08.842Z,51.211964
2022-11-12T03:43:08.840Z,51.212006
2022-11-12T03:44:08.825Z,51.212070
2022-11-12T03:45:08.837Z,51.212181
2022-11-12T03:46:08.903Z,51.212250
2022-11-12T03:47:08.818Z,51.212189
2022-11-12T03:48:08.801Z,51.212151
2022-11-12T03:49:08.857Z,51.212135
2022-11-12T03:50:09.804Z,51.212082
2022-11-12T03:51:08.798Z,51.212158
2022-11-12T03:52:08.821Z,51.212090
2022-11-12T03:53:08.801Z,51.212132
2022-11-12T03:54:08.772Z,51.212063
2022-11-12T03:55:08.768Z,51.212215
2022-11-12T03:56:08.851Z,51.212162
2022-11-12T03:57:08.767Z,51.212097
2022-11-12T03:58:08.746Z,51.212044
2022-11-12T03:59:08.730Z,51.212074
2022-11-12T04:00:08.730Z,51.212086
2022-11-12T04:01:08.831Z,51.212143
2022-11-12T04:02:08.723Z,51.212074
2022-11-12T04:03:08.715Z,51.212040
2022-11-12T04:04:08.712Z,51.212139
2022-11-12T04:05:08.703Z,51.211979
2022-11-12T04:06:08.696Z,51.212029
2022-11-12T04:07:08.731Z,51.211941
2022-11-12T04:08:08.687Z,51.212109
2022-11-12T04:09:08.673Z,51.211952
2022-11-12T04:10:08.675Z,51.211990
2022-11-12T04:11:09.444Z,51.211979
2022-11-12T04:12:09.747Z,51.211948
2022-11-12T04:13:08.654Z,51.211761
2022-11-12T04:14:08.667Z,51.211967
2022-11-12T04:15:08.643Z,51.212139
2022-11-12T04:16:08.644Z,51.212002
2022-11-12T04:17:08.652Z,51.212063
2022-11-12T04:18:08.664Z,51.211964
2022-11-12T04:19:08.614Z,51.211994
2022-11-12T04:20:08.646Z,51.212055
2022-11-12T04:21:08.599Z,51.212109
2022-11-12T04:22:09.612Z,51.211929
2022-11-12T04:23:08.624Z,51.211884
2022-11-12T04:24:08.612Z,51.211712
2022-11-12T04:25:08.631Z,51.211998
2022-11-12T04:26:08.578Z,51.212124
2022-11-12T04:27:08.582Z,51.212017
2022-11-12T04:28:08.644Z,51.212040
2022-11-12T04:29:09.596Z,51.211967
2022-11-12T04:30:08.554Z,51.212029
2022-11-12T04:31:08.536Z,51.211929
2022-11-12T04:32:08.538Z,51.212120
2022-11-12T04:33:08.551Z,51.211773
2022-11-12T04:34:08.543Z,51.212154
2022-11-12T04:35:08.564Z,51.211773
2022-11-12T04:36:08.544Z,51.212021
2022-11-12T04:37:08.500Z,51.211937
2022-11-12T04:38:08.500Z,51.211945
2022-11-12T04:39:08.487Z,51.211975
2022-11-12T04:40:08.503Z,51.212032
2022-11-12T04:41:08.511Z,51.211971
2022-11-12T04:42:08.508Z,51.212109
2022-11-12T04:43:08.469Z,51.212132
2022-11-12T04:44:08.575Z,51.211929
2022-11-12T04:45:08.473Z,51.212112
2022-11-12T04:46:08.471Z,51.211906
2022-11-12T04:47:08.469Z,51.212059
2022-11-12T04:48:08.435Z,51.212082
2022-11-12T04:49:08.453Z,51.212132
2022-11-12T04:50:08.449Z,51.212059
2022-11-12T04:51:08.454Z,51.211975
2022-11-12T04:52:08.426Z,51.212070
2022-11-12T04:53:08.408Z,51.211941
2022-11-12T04:54:08.409Z,51.212021
2022-11-12T04:55:08.405Z,51.211956
2022-11-12T04:56:08.391Z,51.211864
2022-11-12T04:57:08.415Z,51.211903
2022-11-12T04:58:08.383Z,51.211853
2022-11-12T04:59:08.390Z,51.211838
2022-11-12T05:00:08.463Z,51.211678
2022-11-12T05:01:08.390Z,51.212109
2022-11-12T05:02:08.386Z,51.211964
2022-11-12T05:03:08.354Z,51.212139
2022-11-12T05:04:08.362Z,51.212135
2022-11-12T05:05:08.358Z,51.212109
2022-11-12T05:06:08.354Z,51.212231
2022-11-12T05:07:08.387Z,51.211956
2022-11-12T05:08:08.326Z,51.211933
2022-11-12T05:09:08.349Z,51.212059
2022-11-12T05:10:08.333Z,51.211945
2022-11-12T05:11:12.642Z,51.211864
2022-11-12T05:12:09.291Z,51.211994
2022-11-12T05:13:08.295Z,51.212086
2022-11-12T05:14:08.312Z,51.212070
2022-11-12T05:15:08.285Z,51.212105
2022-11-12T05:16:08.379Z,51.212093
2022-11-12T05:17:08.279Z,51.212082
2022-11-12T05:18:08.262Z,51.212051
2022-11-12T05:19:08.288Z,51.212055
2022-11-12T05:20:08.276Z,51.212029
2022-11-12T05:21:08.254Z,51.212082
2022-11-12T05:22:17.380Z,51.212120
2022-11-12T05:23:09.234Z,51.212147
2022-11-12T05:24:08.424Z,51.212166
2022-11-12T05:25:08.242Z,51.212196
2022-11-12T05:26:08.474Z,51.212132
2022-11-12T05:27:08.206Z,51.211933
2022-11-12T05:28:08.199Z,51.212006
2022-11-12T05:29:09.005Z,51.212048
2022-11-12T05:30:09.190Z,51.212078
2022-11-12T05:31:08.206Z,51.212132
2022-11-12T05:32:08.287Z,51.212112
2022-11-12T05:33:08.167Z,51.211960
2022-11-12T05:34:08.166Z,51.211956
2022-11-12T05:35:08.163Z,51.211929
2022-11-12T05:36:08.164Z,51.211979
2022-11-12T05:37:08.151Z,51.212070
2022-11-12T05:38:08.163Z,51.212132
2022-11-12T05:39:08.127Z,51.212109
2022-11-12T05:40:08.120Z,51.212036
2022-11-12T05:41:08.128Z,51.212029
2022-11-12T05:42:15.336Z,51.212055
2022-11-12T05:43:10.103Z,51.212082
2022-11-12T05:44:08.107Z,51.212105
2022-11-12T05:45:08.101Z,51.212097
2022-11-12T05:46:08.086Z,51.212105
2022-11-12T05:47:08.096Z,51.212063
2022-11-12T05:48:08.173Z,51.212048
2022-11-12T05:49:08.052Z,51.212067
2022-11-12T05:50:08.084Z,51.212017
2022-11-12T05:51:15.228Z,51.211906
2022-11-12T05:52:10.189Z,51.211788
2022-11-12T05:53:08.156Z,51.211895
2022-11-12T05:54:08.075Z,51.211845
2022-11-12T05:55:08.046Z,51.211979
2022-11-12T05:56:08.032Z,51.212021
2022-11-12T05:57:08.031Z,51.211975
2022-11-12T05:58:08.033Z,51.212105
2022-11-12T05:59:08.089Z,51.212170
2022-11-12T06:00:08.030Z,51.212112
2022-11-12T06:01:07.987Z,51.211884
2022-11-12T06:02:08.050Z,51.211853
2022-11-12T06:03:07.995Z,51.211811
2022-11-12T06:04:08.067Z,51.211864
2022-11-12T06:05:07.999Z,51.211868
2022-11-12T06:06:07.982Z,51.211914
2022-11-12T06:07:07.993Z,51.211956
2022-11-12T06:08:07.949Z,51.211952
2022-11-12T06:09:07.946Z,51.211990
2022-11-12T06:10:07.941Z,51.211975
2022-11-12T06:11:07.945Z,51.211880
2022-11-12T06:12:07.941Z,51.211948
2022-11-12T06:13:07.937Z,51.211998
2022-11-12T06:14:07.930Z,51.211987
2022-11-12T06:15:07.913Z,51.212143
2022-11-12T06:16:07.924Z,51.212166
2022-11-12T06:17:07.903Z,51.212147
2022-11-12T06:18:07.893Z,51.212139
2022-11-12T06:19:08.925Z,51.212231
2022-11-12T06:20:07.971Z,51.212189
2022-11-12T06:21:07.879Z,51.212212
2022-11-12T06:22:07.903Z,51.212128
2022-11-12T06:23:07.861Z,51.212093
2022-11-12T06:24:07.877Z,51.212002
2022-11-12T06:25:07.931Z,51.211971
2022-11-12T06:26:07.895Z,51.212051
2022-11-12T06:27:07.991Z,51.212063
2022-11-12T06:28:07.973Z,51.212017
2022-11-12T06:29:07.814Z,51.212006
2022-11-12T06:30:07.847Z,51.212006
2022-11-12T06:31:07.816Z,51.211956
2022-11-12T06:32:07.851Z,51.211967
2022-11-12T06:33:07.814Z,51.212044
2022-11-12T06:34:07.812Z,51.211926
2022-11-12T06:35:07.793Z,51.211998
2022-11-12T06:36:07.875Z,51.212013
2022-11-12T06:37:07.793Z,51.211914
2022-11-12T06:38:07.771Z,51.211998
2022-11-12T06:39:07.782Z,51.211987
2022-11-12T06:40:07.784Z,51.212112
2022-11-12T06:41:07.770Z,51.212139
2022-11-12T06:42:07.740Z,51.212204
2022-11-12T06:43:07.724Z,51.212074
2022-11-12T06:44:07.790Z,51.212105
2022-11-12T06:45:07.711Z,51.212124
2022-11-12T06:46:07.716Z,51.212090
2022-11-12T06:47:07.731Z,51.211918
2022-11-12T06:48:07.723Z,51.212147
2022-11-12T06:49:07.704Z,51.212151
2022-11-12T06:50:07.741Z,51.212231
2022-11-12T06:51:07.687Z,51.212326
2022-11-12T06:52:10.050Z,51.212284
2022-11-12T06:53:08.691Z,51.212208
2022-11-12T06:54:07.695Z,51.212032
2022-11-12T06:55:07.680Z,51.212044
2022-11-12T06:56:07.670Z,51.212051
2022-11-12T06:57:07.662Z,51.212151
2022-11-12T06:58:07.642Z,51.212105
2022-11-12T06:59:07.655Z,51.212059
2022-11-12T07:00:07.652Z,51.212166
2022-11-12T07:01:11.418Z,51.212173
2022-11-12T07:02:08.849Z,51.212090
2022-11-12T07:03:07.610Z,51.212063
2022-11-12T07:04:07.605Z,51.212166
2022-11-12T07:05:07.629Z,51.212158
2022-11-12T07:06:07.623Z,51.212166
2022-11-12T07:07:10.671Z,51.212139
2022-11-12T07:08:08.699Z,51.212223
2022-11-12T07:09:07.575Z,51.212219
2022-11-12T07:10:07.602Z,51.212246
2022-11-12T07:11:07.586Z,51.212265
2022-11-12T07:12:07.582Z,51.212238
2022-11-12T07:13:07.554Z,51.212139
2022-11-12T07:14:07.578Z,51.212097
2022-11-12T07:15:07.537Z,51.212208
2022-11-12T07:16:07.545Z,51.212189
2022-11-12T07:17:07.545Z,51.212246
2022-11-12T07:18:07.523Z,51.212223
2022-11-12T07:19:07.511Z,51.212231
2022-11-12T07:20:07.539Z,51.212105
2022-11-12T07:21:07.514Z,51.212166
2022-11-12T07:22:08.518Z,51.212112
2022-11-12T07:23:07.509Z,51.212200
2022-11-12T07:24:07.572Z,51.212154
2022-11-12T07:25:07.483Z,51.212051
2022-11-12T07:26:07.495Z,51.212059
2022-11-12T07:27:07.483Z,51.212097
2022-11-12T07:28:07.489Z,51.212097
2022-11-12T07:29:07.470Z,51.212017
2022-11-12T07:30:07.450Z,51.212078
2022-11-12T07:31:07.473Z,51.212090
2022-11-12T07:32:07.443Z,51.212166
2022-11-12T07:33:07.450Z,51.212109
2022-11-12T07:34:07.452Z,51.212170
2022-11-12T07:35:07.427Z,51.212265
2022-11-12T07:36:07.427Z,51.212242
2022-11-12T07:37:07.421Z,51.212296
2022-11-12T07:38:07.406Z,51.212387
2022-11-12T07:39:07.412Z,51.212238
2022-11-12T07:40:07.474Z,51.212105
2022-11-12T07:41:07.385Z,51.212013
2022-11-12T07:42:07.385Z,51.212086
2022-11-12T07:43:07.377Z,51.212250
2022-11-12T07:44:07.382Z,51.212238
2022-11-12T07:45:07.369Z,51.212189
2022-11-12T07:46:10.533Z,51.212109
2022-11-12T07:47:08.354Z,51.212116
2022-11-12T07:48:07.376Z,51.212193
2022-11-12T07:49:07.389Z,51.212162
2022-11-12T07:50:07.337Z,51.212154
2022-11-12T07:51:07.320Z,51.212215
2022-11-12T07:52:07.305Z,51.212112
2022-11-12T07:53:07.316Z,51.212143
2022-11-12T07:54:07.367Z,51.211922
2022-11-12T07:55:07.296Z,51.211861
2022-11-12T07:56:12.052Z,51.211838
2022-11-12T07:57:07.335Z,51.211868
2022-11-12T07:58:07.274Z,51.211994
2022-11-12T07:59:07.292Z,51.212166
2022-11-12T08:00:07.259Z,51.212257
2022-11-12T08:01:07.419Z,51.212231
2022-11-12T08:02:07.250Z,51.212151
2022-11-12T08:03:07.258Z,51.212120
2022-11-12T08:04:07.244Z,51.212074
2022-11-12T08:05:14.461Z,51.212173
2022-11-12T08:06:09.230Z,51.212242
2022-11-12T08:07:07.321Z,51.212296
2022-11-12T08:08:07.380Z,51.212238
2022-11-12T08:09:07.266Z,51.212276
2022-11-12T08:10:07.225Z,51.212097
2022-11-12T08:11:07.215Z,51.212032
2022-11-12T08:12:07.281Z,51.212200
2022-11-12T08:13:07.187Z,51.212494
2022-11-12T08:14:07.187Z,51.212353
2022-11-12T08:15:07.202Z,51.212372
2022-11-12T08:16:07.162Z,51.212219
2022-11-12T08:17:07.161Z,51.212273
2022-11-12T08:18:07.160Z,51.212212
2022-11-12T08:19:07.179Z,51.212074
2022-11-12T08:20:07.163Z,51.212284
2022-11-12T08:21:07.174Z,51.212318
2022-11-12T08:22:07.177Z,51.212299
2022-11-12T08:23:07.123Z,51.212093
2022-11-12T08:24:07.121Z,51.212093
2022-11-12T08:25:07.139Z,51.212151
2022-11-12T08:26:07.106Z,51.212227
2022-11-12T08:27:07.085Z,51.212170
2022-11-12T08:28:07.215Z,51.212002
2022-11-12T08:29:08.917Z,51.212025
2022-11-12T08:30:08.069Z,51.212078
2022-11-12T08:31:07.120Z,51.212006
2022-11-12T08:32:07.080Z,51.212086
2022-11-12T08:33:07.072Z,51.212109
2022-11-12T08:34:07.167Z,51.212029
2022-11-12T08:35:07.048Z,51.212170
2022-11-12T08:36:07.047Z,51.212120
2022-11-12T08:37:07.053Z,51.212074
2022-11-12T08:38:07.017Z,51.211861
2022-11-12T08:39:08.128Z,51.211849
2022-11-12T08:40:07.120Z,51.211941
2022-11-12T08:41:07.028Z,51.212017
2022-11-12T08:42:07.079Z,51.212269
2022-11-12T08:43:06.987Z,51.212318
2022-11-12T08:44:08.667Z,51.212170
2022-11-12T08:45:07.984Z,51.212223
2022-11-12T08:46:06.990Z,51.211952
2022-11-12T08:47:06.973Z,51.211884
2022-11-12T08:48:06.968Z,51.211758
2022-11-12T08:49:06.968Z,51.211826
2022-11-12T08:50:07.094Z,51.211842
2022-11-12T08:51:06.952Z,51.211594
2022-11-12T08:52:06.944Z,51.211746
2022-11-12T08:53:06.941Z,51.212021
2022-11-12T08:54:06.929Z,51.212059
2022-11-12T08:55:06.921Z,51.212021
2022-11-12T08:56:06.919Z,51.212055
2022-11-12T08:57:06.917Z,51.211903
2022-11-12T08:58:06.896Z,51.211868
2022-11-12T08:59:07.637Z,51.211899
2022-11-12T09:00:07.998Z,51.211918
2022-11-12T09:01:06.890Z,51.211842
2022-11-12T09:02:06.874Z,51.212036
2022-11-12T09:03:06.872Z,51.211945
2022-11-12T09:04:06.878Z,51.211983
2022-11-12T09:05:06.862Z,51.211937
2022-11-12T09:06:06.867Z,51.212048
2022-11-12T09:07:09.402Z,51.211861
2022-11-12T09:08:07.898Z,51.211891
2022-11-12T09:09:06.818Z,51.212051
2022-11-12T09:10:06.853Z,51.212063
2022-11-12T09:11:06.821Z,51.212017
2022-11-12T09:12:14.953Z,51.211983
2022-11-12T09:13:08.803Z,51.212212
2022-11-12T09:14:06.939Z,51.212173
2022-11-12T09:15:36.130Z,51.212223
2022-11-12T09:16:08.890Z,51.212135
2022-11-12T09:17:06.811Z,51.212208
2022-11-12T09:18:06.777Z,51.212112
2022-11-12T09:19:06.796Z,51.211960
2022-11-12T09:20:06.776Z,51.211761
2022-11-12T09:21:06.760Z,51.212154
2022-11-12T09:22:06.746Z,51.212238
2022-11-12T09:23:06.747Z,51.212391
2022-11-12T09:24:06.759Z,51.212322
2022-11-12T09:25:06.738Z,51.212254
2022-11-12T09:26:06.731Z,51.212238
2022-11-12T09:27:06.712Z,51.212234
2022-11-12T09:28:06.715Z,51.212292
2022-11-12T09:29:06.737Z,51.212307
2022-11-12T09:30:06.720Z,51.212200
2022-11-12T09:31:06.712Z,51.212280
2022-11-12T09:32:06.819Z,51.212162
2022-11-12T09:33:06.690Z,51.212242
2022-11-12T09:34:06.711Z,51.212128
2022-11-12T09:35:06.671Z,51.212074
2022-11-12T09:36:06.685Z,51.212204
2022-11-12T09:37:06.721Z,51.212242
2022-11-12T09:38:06.652Z,51.212395
2022-11-12T09:39:06.654Z,51.212337
2022-11-12T09:40:06.745Z,51.212204
2022-11-12T09:41:06.650Z,51.211994
2022-11-12T09:42:06.641Z,51.212013
2022-11-12T09:43:06.639Z,51.212029
2022-11-12T09:44:06.634Z,51.211964
2022-11-12T09:45:06.624Z,51.212132
2022-11-12T09:46:26.763Z,51.212223
2022-11-12T09:47:08.659Z,51.211895
2022-11-12T09:48:06.711Z,51.212116
2022-11-12T09:49:06.592Z,51.212284
2022-11-12T09:50:06.603Z,51.212219
2022-11-12T09:51:06.591Z,51.212139
2022-11-12T09:52:06.581Z,51.212090
2022-11-12T09:53:06.592Z,51.211967
2022-11-12T09:54:06.567Z,51.212132
2022-11-12T09:55:06.560Z,51.212006
2022-11-12T09:56:06.560Z,51.212070
2022-11-12T09:57:06.559Z,51.212059
2022-11-12T09:58:06.548Z,51.211864
2022-11-12T09:59:06.581Z,51.211967
2022-11-12T10:00:06.537Z,51.212067
2022-11-12T10:01:06.525Z,51.212273
2022-11-12T10:02:06.565Z,51.212105
2022-11-12T10:03:06.537Z,51.212223
2022-11-12T10:04:06.667Z,51.212643
2022-11-12T10:05:06.494Z,51.212418
2022-11-12T10:06:10.582Z,51.212101
2022-11-12T10:07:07.529Z,51.211979
2022-11-12T10:08:06.490Z,51.212032
2022-11-12T10:09:06.482Z,51.212070
2022-11-12T10:10:06.504Z,51.212246
2022-11-12T10:11:06.487Z,51.212006
2022-11-12T10:12:06.492Z,51.212078
2022-11-12T10:13:06.481Z,51.212196
2022-11-12T10:14:06.487Z,51.212143
2022-11-12T10:15:06.475Z,51.212162
2022-11-12T10:16:06.433Z,51.212196
2022-11-12T10:17:06.440Z,51.212170
2022-11-12T10:18:06.442Z,51.212292
2022-11-12T10:19:06.418Z,51.212242
2022-11-12T10:20:06.548Z,51.212166
2022-11-12T10:21:06.416Z,51.212120
2022-11-12T10:22:06.441Z,51.212082
2022-11-12T10:23:06.423Z,51.212048
2022-11-12T10:24:06.396Z,51.212139
2022-11-12T10:25:06.415Z,51.212326
2022-11-12T10:26:06.394Z,51.212322
2022-11-12T10:27:06.378Z,51.212238
2022-11-12T10:28:06.381Z,51.212215
2022-11-12T10:29:06.374Z,51.212173
2022-11-12T10:30:06.394Z,51.212193
2022-11-12T10:31:06.377Z,51.212185
2022-11-12T10:32:06.452Z,51.212200
2022-11-12T10:33:06.378Z,51.212212
2022-11-12T10:34:06.347Z,51.212196
2022-11-12T10:35:06.917Z,51.212185
2022-11-12T10:36:06.430Z,51.212254
2022-11-12T10:37:06.342Z,51.212292
2022-11-12T10:38:06.310Z,51.212288
2022-11-12T10:39:06.314Z,51.212357
2022-11-12T10:40:06.329Z,51.212315
2022-11-12T10:41:10.650Z,51.212269
2022-11-12T10:42:07.304Z,51.212212
2022-11-12T10:43:06.285Z,51.212238
2022-11-12T10:44:06.293Z,51.212318
2022-11-12T10:45:06.383Z,51.212227
2022-11-12T10:46:06.269Z,51.212185
2022-11-12T10:47:06.306Z,51.212193
2022-11-12T10:48:06.257Z,51.212109
2022-11-12T10:49:06.240Z,51.212086
2022-11-12T10:50:06.248Z,51.212132
2022-11-12T10:51:06.251Z,51.212147
2022-11-12T10:52:06.342Z,51.212227
2022-11-12T10:53:06.226Z,51.212330
2022-11-12T10:54:06.260Z,51.212284
2022-11-12T10:55:06.228Z,51.212181
2022-11-12T10:56:06.210Z,51.212189
2022-11-12T10:57:06.272Z,51.212147
2022-11-12T10:58:06.192Z,51.212128
2022-11-12T10:59:06.191Z,51.212112
2022-11-12T11:00:06.211Z,51.212078
2022-11-12T11:01:06.167Z,51.212086
2022-11-12T11:02:07.194Z,51.212093
2022-11-12T11:03:06.167Z,51.212051
2022-11-12T11:04:06.163Z,51.212051
2022-11-12T11:05:06.167Z,51.212109
2022-11-12T11:06:06.150Z,51.212166
2022-11-12T11:07:06.276Z,51.212128
2022-11-12T11:08:06.219Z,51.212101
2022-11-12T11:09:06.179Z,51.212124
2022-11-12T11:10:06.133Z,51.212059
2022-11-12T11:11:06.157Z,51.212048
2022-11-12T11:12:06.109Z,51.212048
2022-11-12T11:13:06.092Z,51.212002
2022-11-12T11:14:06.093Z,51.212051
2022-11-12T11:15:06.095Z,51.212097
2022-11-12T11:16:07.124Z,51.211990
2022-11-12T11:17:06.071Z,51.211956
2022-11-12T11:18:06.059Z,51.212009
2022-11-12T11:19:06.069Z,51.211922
2022-11-12T11:20:06.055Z,51.211964
2022-11-12T11:21:06.056Z,51.211983
2022-11-12T11:22:06.081Z,51.212063
2022-11-12T11:23:06.044Z,51.211964
2022-11-12T11:24:06.124Z,51.212017